Strona główna
METAR-TAF:

METAR-TAF

Lotnisko :

Bauru, São Paulo, Brazylia

Szerokość geograficzna: 22-19S, Długość geograficzna: 049-04W, wysokość: 590 m

Aktualna obserwacja pogody

Raport powstał 1 godzina i 11 minut temu, godzina 14:00 UTC
Wiatr 10 kt od północny wschód
Temperatura 19°C
Wilgotność 68%
Ciśnienie 1026 hPa
Widzialność 10 km lub więcej
Brak chmur poniżej 1500 m i brak chmur cumulonimbus

METAR: SBBU 191400Z 04010KT CAVOK 19/13 Q1026

czas: 12:11 (15:11 UTC)

Prognoza

Raport powstał 6 godziny i 11 minut temu, godzina 09:00 UTC
Prognoza ważna od 19 godzina 12 UTC do 19 godzina 24 UTC
Wiatr 10 kt od wschód
Widzialność 10 km lub więcej
Brak chmur poniżej 1500 m i brak chmur cumulonimbus

TAF: SBBU 190900Z 1912/1924 09010KT CAVOK TN14/1912Z TX24/1918Z RMK PFF

Obserwacja i prognoza pogody dla ponad 4000 lotnisk (raport METAR i TAF).

Dostępne stacje oznaczono żółtymi i czerwonymi punktami na mapie.

Najedź kursorem aby zobaczyć nazwę stacji.

Kliknij aby zobaczyć obserwacje i prognozy pogody.

Aby zmienić mapę: kliknij na zielony przycisk z czarnym krzyżykiem, aby powiększyć; na zielony przycisk z myślnikiem, aby pomniejszyć; na zielone strzałki, aby przejść do map sąsiednich.


METAR-TAF: